sensor_id;sensor_type;location;lat;lon;timestamp;temperature;humidity
43043;DHT22;28667;50.758;6.096;2022-09-17T00:01:17;9.00;99.90
43043;DHT22;28667;50.758;6.096;2022-09-17T00:03:47;9.10;99.90
43043;DHT22;28667;50.758;6.096;2022-09-17T00:06:13;9.10;99.90
43043;DHT22;28667;50.758;6.096;2022-09-17T00:08:40;9.10;99.90
43043;DHT22;28667;50.758;6.096;2022-09-17T00:11:08;9.10;99.90
43043;DHT22;28667;50.758;6.096;2022-09-17T00:13:34;9.10;99.90
43043;DHT22;28667;50.758;6.096;2022-09-17T00:16:01;9.10;99.90
43043;DHT22;28667;50.758;6.096;2022-09-17T00:18:27;9.10;99.90
43043;DHT22;28667;50.758;6.096;2022-09-17T00:20:53;9.10;99.90
43043;DHT22;28667;50.758;6.096;2022-09-17T00:23:19;9.20;99.90
43043;DHT22;28667;50.758;6.096;2022-09-17T00:25:45;9.20;99.90
43043;DHT22;28667;50.758;6.096;2022-09-17T00:28:13;9.20;99.90
43043;DHT22;28667;50.758;6.096;2022-09-17T00:30:40;9.20;99.90
43043;DHT22;28667;50.758;6.096;2022-09-17T00:33:09;9.20;99.90
43043;DHT22;28667;50.758;6.096;2022-09-17T00:35:36;9.20;99.90
43043;DHT22;28667;50.758;6.096;2022-09-17T00:38:02;9.20;99.90
43043;DHT22;28667;50.758;6.096;2022-09-17T00:40:29;9.30;99.90
43043;DHT22;28667;50.758;6.096;2022-09-17T00:42:55;9.20;99.90
43043;DHT22;28667;50.758;6.096;2022-09-17T00:45:21;9.30;99.90
43043;DHT22;28667;50.758;6.096;2022-09-17T00:48:00;9.30;99.90
43043;DHT22;28667;50.758;6.096;2022-09-17T00:50:39;9.30;99.90
43043;DHT22;28667;50.758;6.096;2022-09-17T00:53:18;9.30;99.90
43043;DHT22;28667;50.758;6.096;2022-09-17T00:55:48;9.30;99.90
43043;DHT22;28667;50.758;6.096;2022-09-17T00:58:20;9.30;99.90
43043;DHT22;28667;50.758;6.096;2022-09-17T01:00:47;9.30;99.90
43043;DHT22;28667;50.758;6.096;2022-09-17T01:03:14;9.30;99.90
43043;DHT22;28667;50.758;6.096;2022-09-17T01:29:15;9.40;99.90
43043;DHT22;28667;50.758;6.096;2022-09-17T01:34:44;9.30;99.90
43043;DHT22;28667;50.758;6.096;2022-09-17T01:37:18;9.30;99.90
43043;DHT22;28667;50.758;6.096;2022-09-17T01:39:55;9.30;99.90
43043;DHT22;28667;50.758;6.096;2022-09-17T01:43:06;9.30;99.90
43043;DHT22;28667;50.758;6.096;2022-09-17T01:45:34;9.30;99.90
43043;DHT22;28667;50.758;6.096;2022-09-17T01:48:08;9.30;99.90
43043;DHT22;28667;50.758;6.096;2022-09-17T01:50:53;9.30;99.90
43043;DHT22;28667;50.758;6.096;2022-09-17T01:53:24;9.30;99.90
43043;DHT22;28667;50.758;6.096;2022-09-17T01:55:54;9.30;99.90
43043;DHT22;28667;50.758;6.096;2022-09-17T01:58:27;9.40;99.90
43043;DHT22;28667;50.758;6.096;2022-09-17T02:01:03;9.40;99.90
43043;DHT22;28667;50.758;6.096;2022-09-17T02:06:10;9.40;99.90
43043;DHT22;28667;50.758;6.096;2022-09-17T02:08:50;9.30;99.90
43043;DHT22;28667;50.758;6.096;2022-09-17T02:11:17;9.30;99.90
43043;DHT22;28667;50.758;6.096;2022-09-17T02:14:01;9.30;99.90
43043;DHT22;28667;50.758;6.096;2022-09-17T02:16:30;9.30;99.90
43043;DHT22;28667;50.758;6.096;2022-09-17T02:24:24;9.40;99.90
43043;DHT22;28667;50.758;6.096;2022-09-17T02:27:05;9.40;99.90
43043;DHT22;28667;50.758;6.096;2022-09-17T02:29:36;9.40;99.90
43043;DHT22;28667;50.758;6.096;2022-09-17T02:32:03;9.40;99.90
43043;DHT22;28667;50.758;6.096;2022-09-17T02:34:29;9.40;99.90
43043;DHT22;28667;50.758;6.096;2022-09-17T02:36:57;9.40;99.90
43043;DHT22;28667;50.758;6.096;2022-09-17T02:39:24;9.40;99.90
43043;DHT22;28667;50.758;6.096;2022-09-17T02:41:52;9.50;99.90
43043;DHT22;28667;50.758;6.096;2022-09-17T02:58:27;9.50;99.90
43043;DHT22;28667;50.758;6.096;2022-09-17T03:01:02;9.50;99.90
43043;DHT22;28667;50.758;6.096;2022-09-17T03:03:33;9.50;99.90
43043;DHT22;28667;50.758;6.096;2022-09-17T03:06:01;9.50;99.90
43043;DHT22;28667;50.758;6.096;2022-09-17T03:08:31;9.50;99.90
43043;DHT22;28667;50.758;6.096;2022-09-17T03:10:57;9.60;99.90
43043;DHT22;28667;50.758;6.096;2022-09-17T03:13:23;9.60;99.90
43043;DHT22;28667;50.758;6.096;2022-09-17T03:15:49;9.70;99.90
43043;DHT22;28667;50.758;6.096;2022-09-17T03:18:15;9.60;99.90
43043;DHT22;28667;50.758;6.096;2022-09-17T03:20:41;9.60;99.90
43043;DHT22;28667;50.758;6.096;2022-09-17T03:23:07;9.60;99.90
43043;DHT22;28667;50.758;6.096;2022-09-17T03:25:33;9.50;99.90
43043;DHT22;28667;50.758;6.096;2022-09-17T03:27:59;9.50;99.90
43043;DHT22;28667;50.758;6.096;2022-09-17T03:30:25;9.50;99.90
43043;DHT22;28667;50.758;6.096;2022-09-17T03:32:51;9.50;99.90
43043;DHT22;28667;50.758;6.096;2022-09-17T03:35:17;9.50;99.90
43043;DHT22;28667;50.758;6.096;2022-09-17T03:37:43;9.50;99.90
43043;DHT22;28667;50.758;6.096;2022-09-17T03:40:09;9.50;99.90
43043;DHT22;28667;50.758;6.096;2022-09-17T03:42:35;9.50;99.90
43043;DHT22;28667;50.758;6.096;2022-09-17T03:45:01;9.40;99.90
43043;DHT22;28667;50.758;6.096;2022-09-17T03:47:27;9.40;99.90
43043;DHT22;28667;50.758;6.096;2022-09-17T03:49:54;9.40;99.90
43043;DHT22;28667;50.758;6.096;2022-09-17T03:52:20;9.40;99.90
43043;DHT22;28667;50.758;6.096;2022-09-17T03:54:46;9.40;99.90
43043;DHT22;28667;50.758;6.096;2022-09-17T03:57:13;9.40;99.90
43043;DHT22;28667;50.758;6.096;2022-09-17T03:59:39;9.40;99.90
43043;DHT22;28667;50.758;6.096;2022-09-17T04:02:05;9.50;99.90
43043;DHT22;28667;50.758;6.096;2022-09-17T04:04:31;9.50;99.90
43043;DHT22;28667;50.758;6.096;2022-09-17T04:06:57;9.50;99.90
43043;DHT22;28667;50.758;6.096;2022-09-17T04:09:24;9.50;99.90
43043;DHT22;28667;50.758;6.096;2022-09-17T04:11:50;9.50;99.90
43043;DHT22;28667;50.758;6.096;2022-09-17T04:14:15;9.50;99.90
43043;DHT22;28667;50.758;6.096;2022-09-17T04:16:41;9.50;99.90
43043;DHT22;28667;50.758;6.096;2022-09-17T04:19:07;9.50;99.90
43043;DHT22;28667;50.758;6.096;2022-09-17T04:21:34;9.50;99.90
43043;DHT22;28667;50.758;6.096;2022-09-17T04:24:00;9.50;99.90
43043;DHT22;28667;50.758;6.096;2022-09-17T04:26:25;9.50;99.90
43043;DHT22;28667;50.758;6.096;2022-09-17T04:28:52;9.50;99.90
43043;DHT22;28667;50.758;6.096;2022-09-17T04:31:17;9.50;99.90
43043;DHT22;28667;50.758;6.096;2022-09-17T04:33:43;9.50;99.90
43043;DHT22;28667;50.758;6.096;2022-09-17T04:36:09;9.50;99.90
43043;DHT22;28667;50.758;6.096;2022-09-17T04:38:35;9.50;99.90
43043;DHT22;28667;50.758;6.096;2022-09-17T04:41:01;9.60;99.90
43043;DHT22;28667;50.758;6.096;2022-09-17T04:43:27;9.60;99.90
43043;DHT22;28667;50.758;6.096;2022-09-17T04:45:53;9.60;99.90
43043;DHT22;28667;50.758;6.096;2022-09-17T04:48:19;9.60;99.90
43043;DHT22;28667;50.758;6.096;2022-09-17T04:50:45;9.50;99.90
43043;DHT22;28667;50.758;6.096;2022-09-17T04:53:11;9.50;99.90
43043;DHT22;28667;50.758;6.096;2022-09-17T04:55:37;9.40;99.90
43043;DHT22;28667;50.758;6.096;2022-09-17T04:58:04;9.30;99.90
43043;DHT22;28667;50.758;6.096;2022-09-17T05:00:30;9.30;99.90
43043;DHT22;28667;50.758;6.096;2022-09-17T05:02:56;9.30;99.90
43043;DHT22;28667;50.758;6.096;2022-09-17T05:05:22;9.20;99.90
43043;DHT22;28667;50.758;6.096;2022-09-17T05:07:51;9.20;99.90
43043;DHT22;28667;50.758;6.096;2022-09-17T05:10:19;9.10;99.90
43043;DHT22;28667;50.758;6.096;2022-09-17T05:12:53;9.20;99.90
43043;DHT22;28667;50.758;6.096;2022-09-17T05:15:22;9.20;99.90
43043;DHT22;28667;50.758;6.096;2022-09-17T05:17:48;9.30;99.90
43043;DHT22;28667;50.758;6.096;2022-09-17T05:20:15;9.30;99.90
43043;DHT22;28667;50.758;6.096;2022-09-17T05:22:46;9.30;99.90
43043;DHT22;28667;50.758;6.096;2022-09-17T05:25:13;9.40;99.90
43043;DHT22;28667;50.758;6.096;2022-09-17T05:27:40;9.40;99.90
43043;DHT22;28667;50.758;6.096;2022-09-17T05:30:07;9.40;99.90
43043;DHT22;28667;50.758;6.096;2022-09-17T05:32:35;9.40;99.90
43043;DHT22;28667;50.758;6.096;2022-09-17T05:35:02;9.50;99.90
43043;DHT22;28667;50.758;6.096;2022-09-17T05:37:28;9.50;99.90
43043;DHT22;28667;50.758;6.096;2022-09-17T05:39:54;9.50;99.90
43043;DHT22;28667;50.758;6.096;2022-09-17T05:42:20;9.50;99.90
43043;DHT22;28667;50.758;6.096;2022-09-17T05:44:46;9.50;99.90
43043;DHT22;28667;50.758;6.096;2022-09-17T05:47:13;9.50;99.90
43043;DHT22;28667;50.758;6.096;2022-09-17T05:49:38;9.50;99.90
43043;DHT22;28667;50.758;6.096;2022-09-17T05:52:04;9.50;99.90
43043;DHT22;28667;50.758;6.096;2022-09-17T05:54:31;9.50;99.90
43043;DHT22;28667;50.758;6.096;2022-09-17T05:56:57;9.50;99.90
43043;DHT22;28667;50.758;6.096;2022-09-17T05:59:22;9.50;99.90
43043;DHT22;28667;50.758;6.096;2022-09-17T06:01:49;9.60;99.90
43043;DHT22;28667;50.758;6.096;2022-09-17T06:04:15;9.60;99.90
43043;DHT22;28667;50.758;6.096;2022-09-17T06:06:43;9.70;99.90
43043;DHT22;28667;50.758;6.096;2022-09-17T06:09:11;9.70;99.90
43043;DHT22;28667;50.758;6.096;2022-09-17T06:11:37;9.70;99.90
43043;DHT22;28667;50.758;6.096;2022-09-17T06:14:03;9.70;99.90
43043;DHT22;28667;50.758;6.096;2022-09-17T06:16:29;9.80;99.90
43043;DHT22;28667;50.758;6.096;2022-09-17T06:18:55;9.80;99.90
43043;DHT22;28667;50.758;6.096;2022-09-17T06:21:21;9.80;99.90
43043;DHT22;28667;50.758;6.096;2022-09-17T06:23:49;9.80;99.90
43043;DHT22;28667;50.758;6.096;2022-09-17T06:26:15;9.80;99.90
43043;DHT22;28667;50.758;6.096;2022-09-17T06:28:41;9.80;99.90
43043;DHT22;28667;50.758;6.096;2022-09-17T06:31:09;9.80;99.90
43043;DHT22;28667;50.758;6.096;2022-09-17T06:33:35;9.80;99.90
43043;DHT22;28667;50.758;6.096;2022-09-17T06:36:07;9.90;99.90
43043;DHT22;28667;50.758;6.096;2022-09-17T06:38:35;9.90;99.90
43043;DHT22;28667;50.758;6.096;2022-09-17T06:41:02;10.00;99.90
43043;DHT22;28667;50.758;6.096;2022-09-17T06:43:29;10.00;99.90
43043;DHT22;28667;50.758;6.096;2022-09-17T06:46:00;10.10;99.90
43043;DHT22;28667;50.758;6.096;2022-09-17T06:48:28;10.10;99.90
43043;DHT22;28667;50.758;6.096;2022-09-17T06:50:54;10.10;99.90
43043;DHT22;28667;50.758;6.096;2022-09-17T06:53:22;10.20;99.90
43043;DHT22;28667;50.758;6.096;2022-09-17T06:55:49;10.30;99.90
43043;DHT22;28667;50.758;6.096;2022-09-17T06:58:15;10.30;99.90
43043;DHT22;28667;50.758;6.096;2022-09-17T07:00:42;10.50;99.90
43043;DHT22;28667;50.758;6.096;2022-09-17T07:03:08;10.50;99.90
43043;DHT22;28667;50.758;6.096;2022-09-17T07:05:35;10.60;99.90
43043;DHT22;28667;50.758;6.096;2022-09-17T07:08:02;10.70;99.90
43043;DHT22;28667;50.758;6.096;2022-09-17T07:10:29;10.70;99.90
43043;DHT22;28667;50.758;6.096;2022-09-17T07:12:55;10.80;99.90
43043;DHT22;28667;50.758;6.096;2022-09-17T07:15:22;10.80;99.90
43043;DHT22;28667;50.758;6.096;2022-09-17T07:17:48;10.90;99.90
43043;DHT22;28667;50.758;6.096;2022-09-17T07:20:14;10.90;99.90
43043;DHT22;28667;50.758;6.096;2022-09-17T07:22:40;11.00;99.90
43043;DHT22;28667;50.758;6.096;2022-09-17T07:25:07;11.00;99.90
43043;DHT22;28667;50.758;6.096;2022-09-17T07:27:33;11.00;99.90
43043;DHT22;28667;50.758;6.096;2022-09-17T07:29:59;11.10;99.90
43043;DHT22;28667;50.758;6.096;2022-09-17T07:32:28;11.10;99.90
43043;DHT22;28667;50.758;6.096;2022-09-17T07:34:55;11.10;99.90
43043;DHT22;28667;50.758;6.096;2022-09-17T07:37:21;11.10;99.90
43043;DHT22;28667;50.758;6.096;2022-09-17T07:39:47;11.20;99.90
43043;DHT22;28667;50.758;6.096;2022-09-17T07:42:13;11.30;99.90
43043;DHT22;28667;50.758;6.096;2022-09-17T07:44:39;11.20;99.90
43043;DHT22;28667;50.758;6.096;2022-09-17T07:47:05;11.20;99.90
43043;DHT22;28667;50.758;6.096;2022-09-17T07:49:31;11.20;99.90
43043;DHT22;28667;50.758;6.096;2022-09-17T07:51:58;11.30;99.90
43043;DHT22;28667;50.758;6.096;2022-09-17T07:54:29;11.40;99.90
43043;DHT22;28667;50.758;6.096;2022-09-17T07:56:55;11.60;99.90
43043;DHT22;28667;50.758;6.096;2022-09-17T07:59:21;11.70;99.90
43043;DHT22;28667;50.758;6.096;2022-09-17T08:01:47;11.90;99.90
43043;DHT22;28667;50.758;6.096;2022-09-17T08:04:13;12.00;99.90
43043;DHT22;28667;50.758;6.096;2022-09-17T08:06:40;11.90;99.90
43043;DHT22;28667;50.758;6.096;2022-09-17T08:09:06;11.90;99.90
43043;DHT22;28667;50.758;6.096;2022-09-17T08:11:34;11.80;99.90
43043;DHT22;28667;50.758;6.096;2022-09-17T08:14:01;11.80;99.90
43043;DHT22;28667;50.758;6.096;2022-09-17T08:16:29;11.60;99.90
43043;DHT22;28667;50.758;6.096;2022-09-17T08:18:56;11.50;99.90
43043;DHT22;28667;50.758;6.096;2022-09-17T08:21:22;11.40;99.90
43043;DHT22;28667;50.758;6.096;2022-09-17T08:23:49;11.30;99.90
43043;DHT22;28667;50.758;6.096;2022-09-17T08:26:20;11.20;99.90
43043;DHT22;28667;50.758;6.096;2022-09-17T08:28:49;11.20;99.90
43043;DHT22;28667;50.758;6.096;2022-09-17T08:31:18;11.20;99.90
43043;DHT22;28667;50.758;6.096;2022-09-17T08:33:45;11.30;99.90
43043;DHT22;28667;50.758;6.096;2022-09-17T08:36:13;11.40;99.90
43043;DHT22;28667;50.758;6.096;2022-09-17T08:38:40;11.50;99.90
43043;DHT22;28667;50.758;6.096;2022-09-17T08:43:42;11.80;99.90
43043;DHT22;28667;50.758;6.096;2022-09-17T08:46:10;12.00;99.90
43043;DHT22;28667;50.758;6.096;2022-09-17T08:48:50;12.20;99.90
43043;DHT22;28667;50.758;6.096;2022-09-17T08:59:56;12.80;99.90
43043;DHT22;28667;50.758;6.096;2022-09-17T09:05:12;13.00;99.90
43043;DHT22;28667;50.758;6.096;2022-09-17T09:08:05;13.00;99.90
43043;DHT22;28667;50.758;6.096;2022-09-17T09:10:40;13.10;99.90
43043;DHT22;28667;50.758;6.096;2022-09-17T09:13:10;13.20;99.90
43043;DHT22;28667;50.758;6.096;2022-09-17T09:20:49;13.20;99.90
43043;DHT22;28667;50.758;6.096;2022-09-17T09:26:42;13.20;99.90
43043;DHT22;28667;50.758;6.096;2022-09-17T09:34:36;13.10;99.90
43043;DHT22;28667;50.758;6.096;2022-09-17T09:37:30;13.10;99.90
43043;DHT22;28667;50.758;6.096;2022-09-17T09:40:11;12.90;99.90
43043;DHT22;28667;50.758;6.096;2022-09-17T09:42:42;12.90;99.90
43043;DHT22;28667;50.758;6.096;2022-09-17T09:45:17;12.90;99.90
43043;DHT22;28667;50.758;6.096;2022-09-17T09:48:01;12.90;99.90
43043;DHT22;28667;50.758;6.096;2022-09-17T09:50:46;12.80;99.90
43043;DHT22;28667;50.758;6.096;2022-09-17T09:58:54;12.80;99.90
43043;DHT22;28667;50.758;6.096;2022-09-17T10:01:21;12.70;99.90
43043;DHT22;28667;50.758;6.096;2022-09-17T10:03:52;12.70;99.90
43043;DHT22;28667;50.758;6.096;2022-09-17T10:06:19;12.60;99.90
43043;DHT22;28667;50.758;6.096;2022-09-17T10:11:26;12.60;99.90
43043;DHT22;28667;50.758;6.096;2022-09-17T10:13:52;12.60;99.90
43043;DHT22;28667;50.758;6.096;2022-09-17T10:16:38;12.50;99.90
43043;DHT22;28667;50.758;6.096;2022-09-17T10:21:35;12.90;99.90
43043;DHT22;28667;50.758;6.096;2022-09-17T10:24:02;13.00;99.90
43043;DHT22;28667;50.758;6.096;2022-09-17T10:26:34;13.00;99.90
43043;DHT22;28667;50.758;6.096;2022-09-17T10:29:03;12.90;99.90
43043;DHT22;28667;50.758;6.096;2022-09-17T10:34:20;12.80;99.90
43043;DHT22;28667;50.758;6.096;2022-09-17T10:36:47;12.70;99.90
43043;DHT22;28667;50.758;6.096;2022-09-17T10:39:35;12.70;99.90
43043;DHT22;28667;50.758;6.096;2022-09-17T10:44:33;12.80;99.90
43043;DHT22;28667;50.758;6.096;2022-09-17T10:47:05;12.90;99.90
43043;DHT22;28667;50.758;6.096;2022-09-17T10:52:10;13.10;99.90
43043;DHT22;28667;50.758;6.096;2022-09-17T10:54:53;13.20;99.90
43043;DHT22;28667;50.758;6.096;2022-09-17T11:00:15;13.50;99.90
43043;DHT22;28667;50.758;6.096;2022-09-17T11:28:31;13.80;99.90
43043;DHT22;28667;50.758;6.096;2022-09-17T11:36:29;13.80;99.90
43043;DHT22;28667;50.758;6.096;2022-09-17T11:39:02;13.70;99.90
43043;DHT22;28667;50.758;6.096;2022-09-17T11:41:36;13.60;99.90
43043;DHT22;28667;50.758;6.096;2022-09-17T11:46:46;13.50;99.90
43043;DHT22;28667;50.758;6.096;2022-09-17T11:52:22;13.60;99.90
43043;DHT22;28667;50.758;6.096;2022-09-17T11:54:56;13.80;99.90
43043;DHT22;28667;50.758;6.096;2022-09-17T11:57:30;13.90;99.90
43043;DHT22;28667;50.758;6.096;2022-09-17T12:00:17;14.00;99.90
43043;DHT22;28667;50.758;6.096;2022-09-17T12:05:30;14.20;99.90
43043;DHT22;28667;50.758;6.096;2022-09-17T12:09:19;14.30;99.90
43043;DHT22;28667;50.758;6.096;2022-09-17T12:11:24;14.50;99.90
43043;DHT22;28667;50.758;6.096;2022-09-17T12:13:56;14.50;99.90
43043;DHT22;28667;50.758;6.096;2022-09-17T12:16:30;14.60;99.90
43043;DHT22;28667;50.758;6.096;2022-09-17T12:19:21;14.70;99.90
43043;DHT22;28667;50.758;6.096;2022-09-17T12:22:24;14.70;99.90
43043;DHT22;28667;50.758;6.096;2022-09-17T12:24:52;14.80;99.90
43043;DHT22;28667;50.758;6.096;2022-09-17T12:30:05;14.90;99.90
43043;DHT22;28667;50.758;6.096;2022-09-17T12:41:07;15.60;99.90
43043;DHT22;28667;50.758;6.096;2022-09-17T12:49:19;15.50;99.90
43043;DHT22;28667;50.758;6.096;2022-09-17T12:51:54;15.40;99.90
43043;DHT22;28667;50.758;6.096;2022-09-17T13:00:05;14.40;99.90
43043;DHT22;28667;50.758;6.096;2022-09-17T13:05:26;12.70;99.90
43043;DHT22;28667;50.758;6.096;2022-09-17T13:11:09;11.40;99.90
43043;DHT22;28667;50.758;6.096;2022-09-17T13:13:52;11.10;99.90
43043;DHT22;28667;50.758;6.096;2022-09-17T13:19:20;10.80;99.90
43043;DHT22;28667;50.758;6.096;2022-09-17T13:22:05;10.80;99.90
43043;DHT22;28667;50.758;6.096;2022-09-17T13:24:32;10.80;99.90
43043;DHT22;28667;50.758;6.096;2022-09-17T13:27:01;10.80;99.90
43043;DHT22;28667;50.758;6.096;2022-09-17T13:40:30;11.30;99.90
43043;DHT22;28667;50.758;6.096;2022-09-17T13:43:19;11.50;99.90
43043;DHT22;28667;50.758;6.096;2022-09-17T13:48:31;11.80;99.90
43043;DHT22;28667;50.758;6.096;2022-09-17T13:53:57;11.70;99.90
43043;DHT22;28667;50.758;6.096;2022-09-17T13:56:46;11.70;99.90
43043;DHT22;28667;50.758;6.096;2022-09-17T13:59:16;11.60;99.90
43043;DHT22;28667;50.758;6.096;2022-09-17T14:02:00;11.50;99.90
43043;DHT22;28667;50.758;6.096;2022-09-17T14:10:01;11.50;99.90
43043;DHT22;28667;50.758;6.096;2022-09-17T14:12:53;11.70;99.90
43043;DHT22;28667;50.758;6.096;2022-09-17T14:18:33;11.90;99.90
43043;DHT22;28667;50.758;6.096;2022-09-17T14:23:42;12.00;99.90
43043;DHT22;28667;50.758;6.096;2022-09-17T14:26:17;12.10;99.90
43043;DHT22;28667;50.758;6.096;2022-09-17T14:31:40;12.40;99.90
43043;DHT22;28667;50.758;6.096;2022-09-17T14:34:15;12.60;99.90
43043;DHT22;28667;50.758;6.096;2022-09-17T14:36:43;12.80;99.90
43043;DHT22;28667;50.758;6.096;2022-09-17T14:39:21;13.10;99.90
43043;DHT22;28667;50.758;6.096;2022-09-17T14:41:48;13.40;99.90
43043;DHT22;28667;50.758;6.096;2022-09-17T14:44:26;13.60;99.90
43043;DHT22;28667;50.758;6.096;2022-09-17T14:47:05;13.70;99.90
43043;DHT22;28667;50.758;6.096;2022-09-17T14:49:34;13.60;99.90
43043;DHT22;28667;50.758;6.096;2022-09-17T14:52:16;13.50;99.90
43043;DHT22;28667;50.758;6.096;2022-09-17T14:54:44;13.40;99.90
43043;DHT22;28667;50.758;6.096;2022-09-17T14:57:28;13.30;99.90
43043;DHT22;28667;50.758;6.096;2022-09-17T14:59:54;13.20;99.90
43043;DHT22;28667;50.758;6.096;2022-09-17T15:04:58;13.10;99.90
43043;DHT22;28667;50.758;6.096;2022-09-17T15:07:25;13.20;99.90
43043;DHT22;28667;50.758;6.096;2022-09-17T15:09:52;13.30;99.90
43043;DHT22;28667;50.758;6.096;2022-09-17T15:12:25;13.60;99.90
43043;DHT22;28667;50.758;6.096;2022-09-17T15:14:54;13.70;99.90
43043;DHT22;28667;50.758;6.096;2022-09-17T15:17:22;13.70;99.90
43043;DHT22;28667;50.758;6.096;2022-09-17T15:19:55;13.70;99.90
43043;DHT22;28667;50.758;6.096;2022-09-17T15:22:38;13.80;99.90
43043;DHT22;28667;50.758;6.096;2022-09-17T15:25:24;13.80;99.90
43043;DHT22;28667;50.758;6.096;2022-09-17T15:27:56;13.80;99.90
43043;DHT22;28667;50.758;6.096;2022-09-17T15:30:24;13.80;99.90
43043;DHT22;28667;50.758;6.096;2022-09-17T15:32:55;13.80;99.90
43043;DHT22;28667;50.758;6.096;2022-09-17T15:35:24;13.80;99.90
43043;DHT22;28667;50.758;6.096;2022-09-17T15:38:00;13.80;99.90
43043;DHT22;28667;50.758;6.096;2022-09-17T15:40:37;13.80;99.90
43043;DHT22;28667;50.758;6.096;2022-09-17T15:43:29;13.80;99.90
43043;DHT22;28667;50.758;6.096;2022-09-17T15:45:56;13.80;99.90
43043;DHT22;28667;50.758;6.096;2022-09-17T15:50:57;13.80;99.90
43043;DHT22;28667;50.758;6.096;2022-09-17T15:53:28;13.80;99.90
43043;DHT22;28667;50.758;6.096;2022-09-17T15:58:52;13.90;99.90
43043;DHT22;28667;50.758;6.096;2022-09-17T16:09:39;13.90;99.90
43043;DHT22;28667;50.758;6.096;2022-09-17T16:12:05;14.00;99.90
43043;DHT22;28667;50.758;6.096;2022-09-17T16:14:33;14.10;99.90
43043;DHT22;28667;50.758;6.096;2022-09-17T16:19:55;14.10;99.90
43043;DHT22;28667;50.758;6.096;2022-09-17T16:22:22;13.90;99.90
43043;DHT22;28667;50.758;6.096;2022-09-17T16:24:48;13.80;99.90
43043;DHT22;28667;50.758;6.096;2022-09-17T16:27:21;13.80;99.90
43043;DHT22;28667;50.758;6.096;2022-09-17T16:29:49;13.60;99.90
43043;DHT22;28667;50.758;6.096;2022-09-17T16:32:16;13.50;99.90
43043;DHT22;28667;50.758;6.096;2022-09-17T16:34:42;13.40;99.90
43043;DHT22;28667;50.758;6.096;2022-09-17T16:37:09;13.40;99.90
43043;DHT22;28667;50.758;6.096;2022-09-17T16:39:36;13.30;99.90
43043;DHT22;28667;50.758;6.096;2022-09-17T16:42:02;13.30;99.90
43043;DHT22;28667;50.758;6.096;2022-09-17T16:44:28;13.10;99.90
43043;DHT22;28667;50.758;6.096;2022-09-17T16:46:54;13.10;99.90
43043;DHT22;28667;50.758;6.096;2022-09-17T16:49:20;12.90;99.90
43043;DHT22;28667;50.758;6.096;2022-09-17T16:51:46;12.80;99.90
43043;DHT22;28667;50.758;6.096;2022-09-17T16:54:12;12.70;99.90
43043;DHT22;28667;50.758;6.096;2022-09-17T16:56:39;12.60;99.90
43043;DHT22;28667;50.758;6.096;2022-09-17T16:59:05;12.50;99.90
43043;DHT22;28667;50.758;6.096;2022-09-17T17:01:32;12.50;99.90
43043;DHT22;28667;50.758;6.096;2022-09-17T17:03:58;12.50;99.90
43043;DHT22;28667;50.758;6.096;2022-09-17T17:06:25;12.50;99.90
43043;DHT22;28667;50.758;6.096;2022-09-17T17:08:52;12.40;99.90
43043;DHT22;28667;50.758;6.096;2022-09-17T17:11:18;12.30;99.90
43043;DHT22;28667;50.758;6.096;2022-09-17T17:13:44;12.10;99.90
43043;DHT22;28667;50.758;6.096;2022-09-17T17:16:12;12.00;99.90
43043;DHT22;28667;50.758;6.096;2022-09-17T17:18:41;11.80;99.90
43043;DHT22;28667;50.758;6.096;2022-09-17T17:21:10;11.70;99.90
43043;DHT22;28667;50.758;6.096;2022-09-17T17:23:36;11.50;99.90
43043;DHT22;28667;50.758;6.096;2022-09-17T17:26:03;11.30;99.90
43043;DHT22;28667;50.758;6.096;2022-09-17T17:28:35;11.20;99.90
43043;DHT22;28667;50.758;6.096;2022-09-17T17:31:02;11.10;99.90
43043;DHT22;28667;50.758;6.096;2022-09-17T17:33:28;11.00;99.90
43043;DHT22;28667;50.758;6.096;2022-09-17T17:35:58;10.90;99.90
43043;DHT22;28667;50.758;6.096;2022-09-17T17:38:25;10.80;99.90
43043;DHT22;28667;50.758;6.096;2022-09-17T17:41:02;10.80;99.90
43043;DHT22;28667;50.758;6.096;2022-09-17T17:43:29;10.60;99.90
43043;DHT22;28667;50.758;6.096;2022-09-17T17:45:55;10.60;99.90
43043;DHT22;28667;50.758;6.096;2022-09-17T17:48:21;10.50;99.90
43043;DHT22;28667;50.758;6.096;2022-09-17T17:50:47;10.50;99.90
43043;DHT22;28667;50.758;6.096;2022-09-17T17:53:13;10.40;99.90
43043;DHT22;28667;50.758;6.096;2022-09-17T17:55:39;10.40;99.90
43043;DHT22;28667;50.758;6.096;2022-09-17T17:58:05;10.40;99.90
43043;DHT22;28667;50.758;6.096;2022-09-17T18:00:31;10.40;99.90
43043;DHT22;28667;50.758;6.096;2022-09-17T18:02:57;10.30;99.90
43043;DHT22;28667;50.758;6.096;2022-09-17T18:05:23;10.30;99.90
43043;DHT22;28667;50.758;6.096;2022-09-17T18:07:50;10.40;99.90
43043;DHT22;28667;50.758;6.096;2022-09-17T18:10:16;10.30;99.90
43043;DHT22;28667;50.758;6.096;2022-09-17T18:12:42;10.40;99.90
43043;DHT22;28667;50.758;6.096;2022-09-17T18:15:15;10.40;99.90
43043;DHT22;28667;50.758;6.096;2022-09-17T18:17:42;10.40;99.90
43043;DHT22;28667;50.758;6.096;2022-09-17T18:20:08;10.40;99.90
43043;DHT22;28667;50.758;6.096;2022-09-17T18:22:34;10.40;99.90
43043;DHT22;28667;50.758;6.096;2022-09-17T18:25:01;10.50;99.90
43043;DHT22;28667;50.758;6.096;2022-09-17T18:27:27;10.60;99.90
43043;DHT22;28667;50.758;6.096;2022-09-17T18:29:53;10.60;99.90
43043;DHT22;28667;50.758;6.096;2022-09-17T18:32:19;10.60;99.90
43043;DHT22;28667;50.758;6.096;2022-09-17T18:34:45;10.60;99.90
43043;DHT22;28667;50.758;6.096;2022-09-17T18:37:11;10.70;99.90
43043;DHT22;28667;50.758;6.096;2022-09-17T18:39:37;10.70;99.90
43043;DHT22;28667;50.758;6.096;2022-09-17T18:42:03;10.80;99.90
43043;DHT22;28667;50.758;6.096;2022-09-17T18:44:29;10.80;99.90
43043;DHT22;28667;50.758;6.096;2022-09-17T18:46:58;10.80;99.90
43043;DHT22;28667;50.758;6.096;2022-09-17T18:49:24;10.80;99.90
43043;DHT22;28667;50.758;6.096;2022-09-17T18:51:50;10.80;99.90
43043;DHT22;28667;50.758;6.096;2022-09-17T18:54:17;10.70;99.90
43043;DHT22;28667;50.758;6.096;2022-09-17T18:56:42;10.80;99.90
43043;DHT22;28667;50.758;6.096;2022-09-17T18:59:09;10.70;99.90
43043;DHT22;28667;50.758;6.096;2022-09-17T19:01:36;10.70;99.90
43043;DHT22;28667;50.758;6.096;2022-09-17T19:04:02;10.80;99.90
43043;DHT22;28667;50.758;6.096;2022-09-17T19:06:28;10.70;99.90
43043;DHT22;28667;50.758;6.096;2022-09-17T19:09:00;10.70;99.90
43043;DHT22;28667;50.758;6.096;2022-09-17T19:11:27;10.80;99.90
43043;DHT22;28667;50.758;6.096;2022-09-17T19:13:54;10.80;99.90
43043;DHT22;28667;50.758;6.096;2022-09-17T19:16:20;10.80;99.90
43043;DHT22;28667;50.758;6.096;2022-09-17T19:18:47;10.80;99.90
43043;DHT22;28667;50.758;6.096;2022-09-17T19:21:16;10.80;99.90
43043;DHT22;28667;50.758;6.096;2022-09-17T19:23:47;10.70;99.90
43043;DHT22;28667;50.758;6.096;2022-09-17T19:26:16;10.80;99.90
43043;DHT22;28667;50.758;6.096;2022-09-17T19:28:43;10.70;99.90
43043;DHT22;28667;50.758;6.096;2022-09-17T19:31:16;10.70;99.90